Time;durP1;ratioP1;P1;durP2;ratioP2;P2;SDS_P1;SDS_P2;PMS_P1;PMS_P2;Temp;Humidity;BMP_temperature;BMP_pressure;BME280_temperature;BME280_humidity;BME280_pressure;Samples;Min_cycle;Max_cycle;Signal;HPM_P1;HPM_P2
2021/12/15 00:00:19;;;;;;;1999.90;999.90;;;10.40;99.90;;;;;;4972628;28;20492;-69
2021/12/15 00:02:45;;;;;;;1999.90;999.90;;;10.50;99.90;;;;;;4972894;28;20172;-69
2021/12/15 00:05:20;;;;;;;1999.90;999.90;;;10.40;99.90;;;;;;4972381;28;20452;-69
2021/12/15 00:07:46;;;;;;;1999.90;999.90;;;10.30;99.90;;;;;;4972841;28;20448;-69
2021/12/15 00:10:12;;;;;;;1999.90;999.90;;;10.30;99.90;;;;;;4972914;28;20442;-69
2021/12/15 00:12:38;;;;;;;1999.90;999.90;;;10.30;99.90;;;;;;4972864;28;20446;-70
2021/12/15 00:15:04;;;;;;;1999.90;999.90;;;10.40;99.90;;;;;;4972699;28;20548;-70
2021/12/15 00:17:29;;;;;;;1999.90;999.90;;;10.40;99.90;;;;;;4973318;28;20167;-70
2021/12/15 00:19:55;;;;;;;1999.90;999.90;;;10.40;99.90;;;;;;4973650;28;20852;-70
2021/12/15 00:22:21;;;;;;;1999.90;999.90;;;10.30;99.90;;;;;;4973681;28;20287;-69
2021/12/15 00:24:47;;;;;;;1999.90;999.90;;;10.30;99.90;;;;;;4972343;28;20555;-68
2021/12/15 00:27:12;;;;;;;1999.90;999.90;;;10.30;99.90;;;;;;4972482;28;20177;-69
2021/12/15 00:29:38;;;;;;;1999.90;999.90;;;10.30;99.90;;;;;;4972290;28;20176;-69
2021/12/15 00:32:04;;;;;;;1999.90;999.90;;;10.40;99.90;;;;;;4972126;28;20195;-69
2021/12/15 00:34:35;;;;;;;1999.90;999.90;;;10.40;99.90;;;;;;4971893;28;20186;-69
2021/12/15 00:37:01;;;;;;;1999.90;999.90;;;10.40;99.90;;;;;;4972245;28;20398;-69
2021/12/15 00:39:28;;;;;;;1999.90;999.90;;;10.40;99.90;;;;;;4972313;28;20752;-69
2021/12/15 00:41:55;;;;;;;1999.90;999.90;;;10.40;99.90;;;;;;4971727;28;20531;-69
2021/12/15 00:44:21;;;;;;;1999.90;999.90;;;10.50;99.90;;;;;;4971832;28;20442;-70
2021/12/15 00:46:50;;;;;;;1999.90;999.90;;;10.40;99.90;;;;;;4972930;28;20405;-70
2021/12/15 00:49:15;;;;;;;1999.90;999.90;;;10.40;99.90;;;;;;4973020;28;20419;-69
2021/12/15 00:51:42;;;;;;;1999.90;999.90;;;10.40;99.90;;;;;;4973234;28;20524;-70
2021/12/15 00:54:09;;;;;;;1999.90;999.90;;;10.40;99.90;;;;;;4972147;28;20609;-69
2021/12/15 00:56:35;;;;;;;1999.90;999.90;;;10.40;99.90;;;;;;4972443;28;20452;-70
2021/12/15 00:59:06;;;;;;;1999.90;999.90;;;10.40;99.90;;;;;;4971674;28;20428;-70
2021/12/15 01:01:33;;;;;;;1999.90;999.90;;;10.40;99.90;;;;;;4972023;28;20465;-70
2021/12/15 01:03:59;;;;;;;1999.90;999.90;;;10.40;99.90;;;;;;4971744;28;20415;-67
2021/12/15 01:06:29;;;;;;;1999.90;999.90;;;10.50;99.90;;;;;;4971955;28;20895;-70
2021/12/15 01:09:02;;;;;;;1999.90;999.90;;;10.50;99.90;;;;;;4971779;28;20384;-70
2021/12/15 01:20:10;;;;;;;1999.90;999.90;;;10.60;99.90;;;;;;4971312;28;20415;-70
2021/12/15 01:22:43;;;;;;;1999.90;999.90;;;10.70;99.90;;;;;;4971534;28;20419;-70
2021/12/15 01:25:11;;;;;;;1999.90;999.90;;;10.60;99.90;;;;;;4970222;28;20500;-69
2021/12/15 01:27:37;;;;;;;1999.90;999.90;;;10.50;99.90;;;;;;4971879;28;20625;-70
2021/12/15 01:30:05;;;;;;;1999.90;999.90;;;10.50;99.90;;;;;;4971401;28;20414;-68
2021/12/15 01:32:31;;;;;;;1999.90;999.90;;;10.60;99.90;;;;;;4971722;28;20455;-68
2021/12/15 01:34:57;;;;;;;1999.90;999.90;;;10.60;99.90;;;;;;4971186;28;20495;-69
2021/12/15 01:37:22;;;;;;;1999.90;999.90;;;10.60;99.90;;;;;;4971421;28;20242;-68
2021/12/15 01:39:53;;;;;;;1999.90;999.90;;;10.60;99.90;;;;;;4971341;28;20177;-69
2021/12/15 01:42:20;;;;;;;1999.90;999.90;;;10.60;99.90;;;;;;4971598;28;20201;-70
2021/12/15 01:47:30;;;;;;;1999.90;999.90;;;10.70;99.90;;;;;;4970907;28;20405;-69
2021/12/15 01:49:56;;;;;;;1999.90;999.90;;;10.80;99.90;;;;;;4970866;28;20412;-69
2021/12/15 01:52:35;;;;;;;1999.90;999.90;;;10.80;99.90;;;;;;4971068;28;20687;-69
2021/12/15 01:55:10;;;;;;;1999.90;999.90;;;10.80;99.90;;;;;;4970932;28;20456;-69
2021/12/15 01:57:39;;;;;;;1999.90;999.90;;;10.70;99.90;;;;;;4971336;28;20467;-70
2021/12/15 02:00:17;;;;;;;1999.90;999.90;;;10.70;99.90;;;;;;4971063;28;20404;-70
2021/12/15 02:02:43;;;;;;;1999.90;999.90;;;10.60;99.90;;;;;;4971062;28;20413;-70
2021/12/15 02:05:10;;;;;;;1999.90;999.90;;;10.60;99.90;;;;;;4970756;28;20771;-70
2021/12/15 02:07:37;;;;;;;1999.90;999.90;;;10.50;99.90;;;;;;4971114;28;20323;-69
2021/12/15 02:10:05;;;;;;;1999.90;999.90;;;10.40;99.90;;;;;;4970474;28;20415;-70
2021/12/15 02:12:36;;;;;;;1999.90;999.90;;;10.30;99.90;;;;;;4971200;28;20793;-70
2021/12/15 02:15:07;;;;;;;1999.90;999.90;;;10.30;99.90;;;;;;4970877;28;20470;-69
2021/12/15 02:17:32;;;;;;;1999.90;999.90;;;10.30;99.90;;;;;;4971204;28;20488;-69
2021/12/15 02:19:58;;;;;;;1999.90;999.90;;;10.20;99.90;;;;;;4971198;28;20460;-70
2021/12/15 02:22:24;;;;;;;1999.90;999.90;;;10.20;99.90;;;;;;4970697;28;20282;-69
2021/12/15 02:24:52;;;;;;;1999.90;999.90;;;10.20;99.90;;;;;;4970082;28;20269;-69
2021/12/15 02:27:18;;;;;;;1999.90;999.90;;;10.20;99.90;;;;;;4970312;28;20428;-69
2021/12/15 02:29:47;;;;;;;1999.90;999.90;;;10.20;99.90;;;;;;4970405;28;20415;-69
2021/12/15 02:37:17;;;;;;;1999.90;999.90;;;10.20;99.90;;;;;;4970263;28;20780;-69
2021/12/15 02:39:51;;;;;;;1999.90;999.90;;;10.20;99.90;;;;;;4970188;28;20403;-69
2021/12/15 02:42:19;;;;;;;1999.90;999.90;;;10.10;99.90;;;;;;4970230;28;20925;-69
2021/12/15 02:44:46;;;;;;;1999.90;999.90;;;10.00;99.90;;;;;;4970083;28;20417;-70
2021/12/15 02:47:19;;;;;;;1999.90;999.90;;;10.00;99.90;;;;;;4970357;28;20896;-69
2021/12/15 02:49:45;;;;;;;1999.90;999.90;;;10.00;99.90;;;;;;4969304;28;20434;-69
2021/12/15 02:52:11;;;;;;;1999.90;999.90;;;10.00;99.90;;;;;;4962952;28;20446;-69
2021/12/15 02:54:37;;;;;;;1999.90;999.90;;;10.00;99.90;;;;;;4969769;28;20419;-69
2021/12/15 02:57:11;;;;;;;1999.90;999.90;;;10.00;99.90;;;;;;4970145;28;20173;-69
2021/12/15 03:00:03;;;;;;;1999.90;999.90;;;10.00;99.90;;;;;;4970131;28;20159;-69
2021/12/15 03:05:36;;;;;;;1999.90;999.90;;;10.10;99.90;;;;;;4970574;28;20456;-70
2021/12/15 03:08:15;;;;;;;1999.90;999.90;;;10.10;99.90;;;;;;4971031;28;20422;-70
2021/12/15 03:16:15;;;;;;;1999.90;999.90;;;10.00;99.90;;;;;;4970581;28;20463;-70
2021/12/15 03:18:41;;;;;;;1999.90;999.90;;;10.00;99.90;;;;;;4971052;28;20425;-69
2021/12/15 03:21:14;;;;;;;1999.90;999.90;;;10.00;99.90;;;;;;4972018;28;20443;-70
2021/12/15 03:23:51;;;;;;;1999.90;999.90;;;10.00;99.90;;;;;;4974021;28;20156;-69
2021/12/15 03:26:48;;;;;;;1999.90;999.90;;;10.10;99.90;;;;;;4973202;28;20424;-69
2021/12/15 03:35:04;;;;;;;1999.90;999.90;;;10.00;99.90;;;;;;4972885;28;20826;-69
2021/12/15 03:37:35;;;;;;;1999.90;999.90;;;10.10;99.90;;;;;;4973448;28;20431;-70
2021/12/15 03:40:23;;;;;;;1999.90;999.90;;;10.20;99.90;;;;;;4973619;28;20432;-69
2021/12/15 03:42:56;;;;;;;1999.90;999.90;;;10.10;99.90;;;;;;4974339;28;20888;-69
2021/12/15 03:45:27;;;;;;;1999.90;999.90;;;10.00;99.90;;;;;;4974013;28;20751;-70
2021/12/15 03:47:54;;;;;;;1999.90;999.90;;;10.00;99.90;;;;;;4973580;28;20409;-70
2021/12/15 03:50:23;;;;;;;1999.90;999.90;;;10.00;99.90;;;;;;4972649;28;20512;-69
2021/12/15 03:52:49;;;;;;;1999.90;999.90;;;10.10;99.90;;;;;;4972908;28;20469;-69
2021/12/15 03:55:22;;;;;;;1999.90;999.90;;;10.20;99.90;;;;;;4972232;28;20464;-69
2021/12/15 03:57:48;;;;;;;1999.90;999.90;;;10.20;99.90;;;;;;4972668;28;20403;-69
2021/12/15 04:00:15;;;;;;;1999.90;999.90;;;10.20;99.90;;;;;;4972556;28;20416;-69
2021/12/15 04:02:42;;;;;;;1999.90;999.90;;;10.20;99.90;;;;;;4972511;28;20408;-69
2021/12/15 04:05:10;;;;;;;1999.90;999.90;;;10.20;99.90;;;;;;4972249;28;20452;-69
2021/12/15 04:07:37;;;;;;;1999.90;999.90;;;10.20;99.90;;;;;;4972556;28;20472;-69
2021/12/15 04:10:06;;;;;;;1999.90;999.90;;;10.20;99.90;;;;;;4970060;28;20420;-69
2021/12/15 04:12:32;;;;;;;1999.90;999.90;;;10.20;99.90;;;;;;4964177;28;20427;-69
2021/12/15 04:15:18;;;;;;;1999.90;999.90;;;10.20;99.90;;;;;;4972042;28;20933;-69
2021/12/15 04:17:44;;;;;;;1999.90;999.90;;;10.20;99.90;;;;;;4972184;28;20243;-69
2021/12/15 04:20:13;;;;;;;1999.90;999.90;;;10.20;99.90;;;;;;4972330;28;20409;-69
2021/12/15 04:22:39;;;;;;;1999.90;999.90;;;10.30;99.90;;;;;;4972192;28;20447;-69
2021/12/15 04:25:14;;;;;;;1999.90;999.90;;;10.30;99.90;;;;;;4972390;28;20424;-68
2021/12/15 04:27:56;;;;;;;1999.90;999.90;;;10.30;99.90;;;;;;4972866;28;20748;-70
2021/12/15 04:30:24;;;;;;;1999.90;999.90;;;10.20;99.90;;;;;;4973057;28;20432;-70
2021/12/15 04:32:51;;;;;;;1999.90;999.90;;;10.10;99.90;;;;;;4972247;28;20502;-69
2021/12/15 04:35:16;;;;;;;1999.90;999.90;;;10.10;99.90;;;;;;4972571;28;20487;-69
2021/12/15 04:37:43;;;;;;;1999.90;999.90;;;10.00;99.90;;;;;;4971937;28;20413;-69
2021/12/15 04:40:15;;;;;;;1999.90;999.90;;;10.10;99.90;;;;;;4971750;28;20246;-69
2021/12/15 04:42:43;;;;;;;1999.90;999.90;;;10.10;99.90;;;;;;4972011;28;20759;-69
2021/12/15 04:45:12;;;;;;;1999.90;999.90;;;10.00;99.90;;;;;;4971763;28;20498;-69
2021/12/15 04:47:40;;;;;;;1999.90;999.90;;;10.00;99.90;;;;;;4972937;28;20416;-69
2021/12/15 04:50:06;;;;;;;1999.90;999.90;;;10.00;99.90;;;;;;4972801;28;20504;-70
2021/12/15 04:52:32;;;;;;;1999.90;999.90;;;10.00;99.90;;;;;;4971953;28;20421;-68
2021/12/15 04:54:59;;;;;;;1999.90;999.90;;;10.00;99.90;;;;;;4971902;28;20488;-69
2021/12/15 04:57:27;;;;;;;1999.90;999.90;;;10.00;99.90;;;;;;4973525;28;20901;-70
2021/12/15 04:59:53;;;;;;;1999.90;999.90;;;10.00;99.90;;;;;;4971649;28;20417;-69
2021/12/15 05:02:20;;;;;;;1999.90;999.90;;;10.00;99.90;;;;;;4971549;28;20436;-69
2021/12/15 05:04:46;;;;;;;1999.90;999.90;;;10.00;99.90;;;;;;4971199;28;20893;-70
2021/12/15 05:07:13;;;;;;;1999.90;999.90;;;9.90;99.90;;;;;;4971672;28;20411;-69
2021/12/15 05:09:39;;;;;;;1999.90;999.90;;;9.80;99.90;;;;;;4971837;28;20508;-69
2021/12/15 05:12:06;;;;;;;1999.90;999.90;;;9.70;99.90;;;;;;4971665;28;20435;-69
2021/12/15 05:14:32;;;;;;;1999.90;999.90;;;9.70;99.90;;;;;;4971733;28;20426;-70
2021/12/15 05:16:58;;;;;;;1999.90;999.90;;;9.70;99.90;;;;;;4972469;28;20435;-70
2021/12/15 05:19:26;;;;;;;1999.90;999.90;;;9.60;99.90;;;;;;4972734;28;20415;-70
2021/12/15 05:21:52;;;;;;;1999.90;999.90;;;9.50;99.90;;;;;;4971753;28;20445;-70
2021/12/15 05:26:55;;;;;;;1999.90;999.90;;;9.50;99.90;;;;;;4971664;28;20428;-69
2021/12/15 05:29:21;;;;;;;1999.90;999.90;;;9.50;99.90;;;;;;4971308;28;20901;-69
2021/12/15 05:31:47;;;;;;;1999.90;999.90;;;9.60;99.90;;;;;;4971185;28;20439;-70
2021/12/15 05:34:13;;;;;;;1999.90;999.90;;;9.60;99.90;;;;;;4970998;28;20435;-69
2021/12/15 05:36:39;;;;;;;1999.90;999.90;;;9.50;99.90;;;;;;4971147;28;20872;-69
2021/12/15 05:39:06;;;;;;;1999.90;999.90;;;9.60;99.90;;;;;;4971508;28;20419;-70
2021/12/15 05:41:36;;;;;;;1999.90;999.90;;;9.60;99.90;;;;;;4971282;28;20938;-70
2021/12/15 05:44:03;;;;;;;1999.90;999.90;;;9.70;99.90;;;;;;4970954;28;20495;-69
2021/12/15 05:46:29;;;;;;;1999.90;999.90;;;9.70;99.90;;;;;;4971104;28;20420;-69
2021/12/15 05:48:55;;;;;;;1999.90;999.90;;;9.80;99.90;;;;;;4971184;28;20426;-69
2021/12/15 05:51:21;;;;;;;1999.90;999.90;;;9.80;99.90;;;;;;4970850;28;20192;-69
2021/12/15 05:53:47;;;;;;;1999.90;999.90;;;9.70;99.90;;;;;;4971062;28;20225;-69
2021/12/15 05:56:12;;;;;;;1999.90;999.90;;;9.70;99.90;;;;;;4970580;28;20454;-69
2021/12/15 05:58:38;;;;;;;1999.90;999.90;;;9.70;99.90;;;;;;4970922;28;20961;-69
2021/12/15 06:01:05;;;;;;;1999.90;999.90;;;9.70;99.90;;;;;;4970917;28;20196;-68
2021/12/15 06:03:31;;;;;;;1999.90;999.90;;;9.70;99.90;;;;;;4970929;28;20411;-69
2021/12/15 06:05:56;;;;;;;1999.90;999.90;;;9.70;99.90;;;;;;4970681;28;20492;-69
2021/12/15 06:08:22;;;;;;;1999.90;999.90;;;9.60;99.90;;;;;;4970893;28;20451;-69
2021/12/15 06:10:48;;;;;;;1999.90;999.90;;;9.60;99.90;;;;;;4970667;28;20238;-69
2021/12/15 06:13:14;;;;;;;1999.90;999.90;;;9.50;99.90;;;;;;4970674;28;20181;-70
2021/12/15 06:15:43;;;;;;;1999.90;999.90;;;9.50;99.90;;;;;;4970411;28;20864;-70
2021/12/15 06:18:16;;;;;;;1999.90;999.90;;;9.40;99.90;;;;;;4970725;28;20414;-70
2021/12/15 06:20:42;;;;;;;1999.90;999.90;;;9.30;99.90;;;;;;4970752;28;20426;-69
2021/12/15 06:23:17;;;;;;;1999.90;999.90;;;9.30;99.90;;;;;;4970791;28;20416;-69
2021/12/15 06:25:44;;;;;;;1999.90;999.90;;;9.30;99.90;;;;;;4970590;28;20496;-70
2021/12/15 06:28:10;;;;;;;1999.90;999.90;;;9.30;99.90;;;;;;4970427;28;20427;-70
2021/12/15 06:30:37;;;;;;;1999.90;999.90;;;9.40;99.90;;;;;;4970820;28;20583;-69
2021/12/15 06:33:03;;;;;;;1999.90;999.90;;;9.40;99.90;;;;;;4970424;28;20608;-69
2021/12/15 06:35:29;;;;;;;1999.90;999.90;;;9.40;99.90;;;;;;4969989;28;20457;-69
2021/12/15 06:37:55;;;;;;;1999.90;999.90;;;9.50;99.90;;;;;;4970308;28;20409;-69
2021/12/15 06:40:21;;;;;;;1999.90;999.90;;;9.60;99.90;;;;;;4970090;28;20868;-70
2021/12/15 06:42:47;;;;;;;1999.90;999.90;;;9.60;99.90;;;;;;4970164;28;20469;-69
2021/12/15 06:45:18;;;;;;;1999.90;999.90;;;9.60;99.90;;;;;;4970132;28;20184;-69
2021/12/15 06:58:28;;;;;;;1999.90;999.90;;;9.60;99.90;;;;;;4973490;28;20416;-70
2021/12/15 07:00:56;;;;;;;1999.90;999.90;;;9.60;99.90;;;;;;4973351;28;20431;-70
2021/12/15 07:03:23;;;;;;;1999.90;999.90;;;9.60;99.90;;;;;;4973332;28;20282;-69
2021/12/15 07:05:52;;;;;;;1999.90;999.90;;;9.60;99.90;;;;;;4973252;28;20831;-69
2021/12/15 07:08:18;;;;;;;1999.90;999.90;;;9.60;99.90;;;;;;4973353;28;20420;-69
2021/12/15 07:10:47;;;;;;;1999.90;999.90;;;9.60;99.90;;;;;;4973444;28;20427;-70
2021/12/15 07:13:15;;;;;;;1999.90;999.90;;;9.70;99.90;;;;;;4974734;28;20487;-69
2021/12/15 07:15:41;;;;;;;1999.90;999.90;;;9.70;99.90;;;;;;4974910;28;20460;-70
2021/12/15 07:18:10;;;;;;;1999.90;999.90;;;9.70;99.90;;;;;;4974389;28;20413;-70
2021/12/15 07:20:41;;;;;;;1999.90;999.90;;;9.60;99.90;;;;;;4974195;28;20848;-70
2021/12/15 07:23:22;;;;;;;1999.90;999.90;;;9.70;99.90;;;;;;4970588;28;20472;-69
2021/12/15 07:25:51;;;;;;;1999.90;999.90;;;9.80;99.90;;;;;;4970832;28;20413;-68
2021/12/15 07:28:19;;;;;;;1999.90;999.90;;;9.80;99.90;;;;;;4973215;28;20399;-69
2021/12/15 07:30:47;;;;;;;1999.90;999.90;;;9.80;99.90;;;;;;4973203;28;20434;-71
2021/12/15 07:33:13;;;;;;;1999.90;999.90;;;9.80;99.90;;;;;;4973289;28;20781;-69
2021/12/15 07:35:39;;;;;;;1999.90;999.90;;;9.80;99.90;;;;;;4972978;28;20459;-69
2021/12/15 07:38:06;;;;;;;1999.90;999.90;;;9.80;99.90;;;;;;4973292;28;20422;-69
2021/12/15 07:40:32;;;;;;;1999.90;999.90;;;9.70;99.90;;;;;;4973113;28;20960;-69
2021/12/15 07:45:37;;;;;;;1999.90;999.90;;;9.80;99.90;;;;;;4972957;28;20502;-69
2021/12/15 07:48:04;;;;;;;1999.90;999.90;;;9.80;99.90;;;;;;4973275;28;20411;-69
2021/12/15 07:50:31;;;;;;;1999.90;999.90;;;9.80;99.90;;;;;;4973172;28;21071;-69
2021/12/15 07:52:57;;;;;;;1999.90;999.90;;;9.80;99.90;;;;;;4973081;28;20415;-69
2021/12/15 07:55:25;;;;;;;1999.90;999.90;;;9.80;99.90;;;;;;4972839;28;20829;-69
2021/12/15 07:57:52;;;;;;;1999.90;999.90;;;9.80;99.90;;;;;;4972802;28;20549;-68
2021/12/15 08:00:18;;;;;;;1999.90;999.90;;;9.90;99.90;;;;;;4973285;28;20443;-69
2021/12/15 08:02:44;;;;;;;1999.90;999.90;;;10.00;99.90;;;;;;4972809;28;20481;-70
2021/12/15 08:05:10;;;;;;;1999.90;999.90;;;10.00;99.90;;;;;;4972447;28;20487;-69
2021/12/15 08:07:36;;;;;;;1999.90;999.90;;;10.00;99.90;;;;;;4971685;28;20187;-69
2021/12/15 08:10:07;;;;;;;1999.90;999.90;;;10.00;99.90;;;;;;4972697;28;20420;-70
2021/12/15 08:12:33;;;;;;;1999.90;999.90;;;9.90;99.90;;;;;;4972474;28;20198;-68
2021/12/15 08:14:58;;;;;;;1999.90;999.90;;;9.90;99.90;;;;;;4972201;28;20515;-69
2021/12/15 08:17:24;;;;;;;1999.90;999.90;;;9.80;99.90;;;;;;4972351;28;20167;-69
2021/12/15 08:19:50;;;;;;;1999.90;999.90;;;9.80;99.90;;;;;;4972302;28;20175;-69
2021/12/15 08:22:16;;;;;;;1999.90;999.90;;;9.70;99.90;;;;;;4972173;28;20196;-69
2021/12/15 08:24:42;;;;;;;1999.90;999.90;;;9.70;99.90;;;;;;4971802;28;20510;-69
2021/12/15 08:27:08;;;;;;;1999.90;999.90;;;9.80;99.90;;;;;;4972232;28;20493;-69
2021/12/15 08:29:34;;;;;;;1999.90;999.90;;;9.80;99.90;;;;;;4972139;28;20173;-69
2021/12/15 08:32:00;;;;;;;1999.90;999.90;;;9.80;99.90;;;;;;4971999;28;20920;-69
2021/12/15 08:34:25;;;;;;;1999.90;999.90;;;9.80;99.90;;;;;;4972057;28;20491;-69
2021/12/15 08:36:52;;;;;;;1999.90;999.90;;;9.80;99.90;;;;;;4971925;28;20291;-69
2021/12/15 08:39:18;;;;;;;1999.90;999.90;;;9.80;99.90;;;;;;4971784;28;20183;-69
2021/12/15 08:41:44;;;;;;;1999.90;999.90;;;9.80;99.90;;;;;;4971722;28;20452;-69
2021/12/15 08:44:10;;;;;;;1999.90;999.90;;;9.90;99.90;;;;;;4966181;28;20413;-69
2021/12/15 08:46:42;;;;;;;1999.90;999.90;;;9.90;99.90;;;;;;4968521;28;20501;-68
2021/12/15 08:49:13;;;;;;;1999.90;999.90;;;10.00;99.90;;;;;;4972120;28;20404;-69
2021/12/15 08:51:39;;;;;;;1999.90;999.90;;;9.90;99.90;;;;;;4972111;28;20585;-69
2021/12/15 08:54:09;;;;;;;1999.90;999.90;;;9.90;99.90;;;;;;4971766;28;21014;-69
2021/12/15 08:56:36;;;;;;;1999.90;999.90;;;9.90;99.90;;;;;;4971980;28;20454;-71
2021/12/15 08:59:04;;;;;;;1999.90;999.90;;;10.00;99.90;;;;;;4971946;28;20420;-70
2021/12/15 09:01:30;;;;;;;1999.90;999.90;;;10.10;99.90;;;;;;4971489;28;20431;-70
2021/12/15 09:03:56;;;;;;;1999.90;999.90;;;10.10;99.90;;;;;;4971549;28;20900;-70
2021/12/15 09:06:22;;;;;;;1999.90;999.90;;;10.10;99.90;;;;;;4971255;28;20427;-69
2021/12/15 09:08:48;;;;;;;1999.90;999.90;;;10.10;99.90;;;;;;4971486;28;20408;-69
2021/12/15 09:11:19;;;;;;;1999.90;999.90;;;10.10;99.90;;;;;;4971553;28;20436;-69
2021/12/15 09:13:49;;;;;;;1999.90;999.90;;;10.10;99.90;;;;;;4971931;28;20195;-69
2021/12/15 09:16:16;;;;;;;1999.90;999.90;;;10.20;99.90;;;;;;4971705;28;20530;-69
2021/12/15 09:18:45;;;;;;;1999.90;999.90;;;10.20;99.90;;;;;;4971392;28;20413;-71
2021/12/15 09:21:14;;;;;;;1999.90;999.90;;;10.30;99.90;;;;;;4971688;28;20440;-69
2021/12/15 09:23:40;;;;;;;1999.90;999.90;;;10.30;99.90;;;;;;4972058;28;20497;-69
2021/12/15 09:26:06;;;;;;;1999.90;999.90;;;10.40;99.90;;;;;;4971027;28;20512;-69
2021/12/15 09:28:34;;;;;;;1999.90;999.90;;;10.40;99.90;;;;;;4971247;28;20828;-69
2021/12/15 09:31:01;;;;;;;1999.90;999.90;;;10.50;99.90;;;;;;4971045;28;20463;-70
2021/12/15 09:33:30;;;;;;;1999.90;999.90;;;10.50;99.90;;;;;;4971106;28;20762;-69
2021/12/15 09:35:57;;;;;;;1999.90;999.90;;;10.60;99.90;;;;;;4970787;28;20501;-69
2021/12/15 09:38:23;;;;;;;1999.90;999.90;;;10.70;99.90;;;;;;4971179;28;20455;-69
2021/12/15 09:40:52;;;;;;;1999.90;999.90;;;10.80;99.90;;;;;;4971780;28;20495;-69
2021/12/15 09:43:19;;;;;;;1999.90;999.90;;;10.90;99.90;;;;;;4972439;28;20436;-70
2021/12/15 09:45:55;;;;;;;1999.90;999.90;;;10.80;99.90;;;;;;4973148;28;20415;-70
2021/12/15 10:18:03;;;;;;;1999.90;999.90;;;10.60;99.90;;;;;;4971366;28;20399;-68
2021/12/15 10:20:31;;;;;;;1999.90;999.90;;;10.60;99.90;;;;;;4972544;28;20444;-69
2021/12/15 10:23:01;;;;;;;1999.90;999.90;;;10.60;99.90;;;;;;4971413;28;20470;-69
2021/12/15 10:25:33;;;;;;;1999.90;999.90;;;10.50;99.90;;;;;;4962352;28;20895;-68
2021/12/15 10:28:04;;;;;;;1999.90;999.90;;;10.60;99.90;;;;;;4972134;28;20408;-70
2021/12/15 10:30:49;;;;;;;1999.90;999.90;;;10.60;99.90;;;;;;4970821;28;20446;-67
2021/12/15 10:33:25;;;;;;;1999.90;999.90;;;10.70;99.90;;;;;;4970958;28;20406;-68
2021/12/15 10:35:57;;;;;;;1999.90;999.90;;;10.70;99.90;;;;;;4971517;28;20467;-68
2021/12/15 10:38:32;;;;;;;1999.90;999.90;;;10.80;99.90;;;;;;4973376;28;20775;-68
2021/12/15 10:41:09;;;;;;;1999.90;999.90;;;10.70;99.90;;;;;;4971021;28;20451;-70
2021/12/15 10:43:49;;;;;;;1999.90;999.90;;;10.70;99.90;;;;;;4971923;28;20405;-69
2021/12/15 10:46:20;;;;;;;1999.90;999.90;;;10.70;99.90;;;;;;4970686;28;20554;-68
2021/12/15 10:48:59;;;;;;;1999.90;999.90;;;10.70;99.90;;;;;;4971197;28;20461;-69
2021/12/15 10:51:44;;;;;;;1999.90;999.90;;;10.70;99.90;;;;;;4971284;28;20574;-68
2021/12/15 10:54:13;;;;;;;1999.90;999.90;;;10.60;99.90;;;;;;4971280;28;20439;-69
2021/12/15 10:56:47;;;;;;;1999.90;999.90;;;10.60;99.90;;;;;;4971451;28;20460;-69
2021/12/15 10:59:14;;;;;;;1999.90;999.90;;;10.50;99.90;;;;;;4960041;28;20794;-69
2021/12/15 11:01:42;;;;;;;1999.90;999.90;;;10.50;99.90;;;;;;4951642;29;20429;-68
2021/12/15 11:04:30;;;;;;;1999.90;999.90;;;10.50;99.90;;;;;;4951699;29;20416;-70
2021/12/15 11:07:22;;;;;;;1999.90;999.90;;;10.50;99.90;;;;;;4951613;28;20485;-70
2021/12/15 11:10:08;;;;;;;1999.90;999.90;;;10.50;99.90;;;;;;4949802;28;20503;-70
2021/12/15 11:12:43;;;;;;;1999.90;999.90;;;10.50;99.90;;;;;;4951010;28;20425;-69
2021/12/15 11:15:14;;;;;;;1999.90;999.90;;;10.50;99.90;;;;;;4949791;28;20804;-69
2021/12/15 11:17:59;;;;;;;1999.90;999.90;;;10.50;99.90;;;;;;4949723;28;20452;-69
2021/12/15 11:20:27;;;;;;;1999.90;999.90;;;10.50;99.90;;;;;;4950062;28;20462;-68
2021/12/15 11:22:54;;;;;;;1999.90;999.90;;;10.60;99.90;;;;;;4950426;29;20413;-69
2021/12/15 11:25:32;;;;;;;1999.90;999.90;;;10.60;99.90;;;;;;4949207;29;20467;-69
2021/12/15 11:28:12;;;;;;;1999.90;999.90;;;10.60;99.90;;;;;;4951636;28;20414;-68
2021/12/15 11:30:49;;;;;;;1999.90;999.90;;;10.60;99.90;;;;;;4951575;28;20486;-69
2021/12/15 11:33:19;;;;;;;1999.90;999.90;;;10.70;99.90;;;;;;4951916;29;20903;-69
2021/12/15 11:35:51;;;;;;;1999.90;999.90;;;10.80;99.90;;;;;;4951236;29;20461;-69
2021/12/15 11:38:24;;;;;;;1999.90;999.90;;;10.80;99.90;;;;;;4951278;28;20411;-69
2021/12/15 11:41:05;;;;;;;1999.90;999.90;;;10.70;99.90;;;;;;4949883;28;20469;-68
2021/12/15 11:43:33;;;;;;;1999.90;999.90;;;10.70;99.90;;;;;;4953418;28;20875;-70
2021/12/15 11:46:01;;;;;;;1999.90;999.90;;;10.80;99.90;;;;;;4952369;28;20896;-70
2021/12/15 11:48:32;;;;;;;1999.90;999.90;;;10.70;99.90;;;;;;4952991;28;20448;-69
2021/12/15 11:51:03;;;;;;;1999.90;999.90;;;10.80;99.90;;;;;;4952967;28;21115;-69
2021/12/15 11:53:45;;;;;;;1999.90;999.90;;;10.90;99.90;;;;;;4953231;28;20434;-68
2021/12/15 11:56:15;;;;;;;1999.90;999.90;;;10.80;99.90;;;;;;4953118;28;20473;-69
2021/12/15 11:58:42;;;;;;;1999.90;999.90;;;10.80;99.90;;;;;;4952889;28;20414;-68
2021/12/15 12:01:08;;;;;;;1999.90;999.90;;;10.80;99.90;;;;;;4952169;28;20577;-69
2021/12/15 12:03:37;;;;;;;1999.90;999.90;;;10.90;99.90;;;;;;4954034;29;20421;-68
2021/12/15 12:06:03;;;;;;;1999.90;999.90;;;10.90;99.90;;;;;;4962441;28;20425;-69
2021/12/15 12:08:30;;;;;;;1999.90;999.90;;;10.90;99.90;;;;;;4965566;28;20505;-68
2021/12/15 12:11:03;;;;;;;1999.90;999.90;;;11.10;99.90;;;;;;4953530;28;20790;-68
2021/12/15 12:13:30;;;;;;;1999.90;999.90;;;11.20;99.90;;;;;;4953690;28;20412;-68
2021/12/15 12:16:02;;;;;;;1999.90;999.90;;;11.10;99.90;;;;;;4952683;28;20483;-68
2021/12/15 12:18:30;;;;;;;1999.90;999.90;;;11.00;99.90;;;;;;4954155;29;20489;-70
2021/12/15 12:20:59;;;;;;;1999.90;999.90;;;10.90;99.90;;;;;;4954429;28;20452;-69
2021/12/15 12:23:28;;;;;;;1999.90;999.90;;;10.90;99.90;;;;;;4954242;28;20412;-68
2021/12/15 12:25:58;;;;;;;1999.90;999.90;;;10.80;99.90;;;;;;4954462;29;20778;-69
2021/12/15 12:28:30;;;;;;;1999.90;999.90;;;10.80;99.90;;;;;;4954764;29;20421;-69
2021/12/15 12:31:03;;;;;;;1999.90;999.90;;;10.70;99.90;;;;;;4953542;28;20515;-68
2021/12/15 12:33:30;;;;;;;1999.90;999.90;;;10.80;99.90;;;;;;4954201;28;20906;-70
2021/12/15 12:35:56;;;;;;;1999.90;999.90;;;10.80;99.90;;;;;;4953988;28;20467;-69
2021/12/15 12:38:27;;;;;;;1999.90;999.90;;;10.70;99.90;;;;;;4953978;29;20410;-68
2021/12/15 12:40:57;;;;;;;1999.90;999.90;;;10.80;99.90;;;;;;4953849;28;20214;-69
2021/12/15 12:43:37;;;;;;;1999.90;999.90;;;10.70;99.90;;;;;;4953874;28;20416;-69
2021/12/15 12:46:21;;;;;;;1999.90;999.90;;;10.70;99.90;;;;;;4952370;28;20420;-70
2021/12/15 13:00:48;;;;;;;1999.90;999.90;;;10.80;99.90;;;;;;4951401;29;20482;-69
2021/12/15 13:03:20;;;;;;;1999.90;999.90;;;10.80;99.90;;;;;;4951739;28;20410;-69
2021/12/15 13:05:45;;;;;;;1999.90;999.90;;;10.80;99.90;;;;;;4951953;28;20484;-68
2021/12/15 13:08:40;;;;;;;1999.90;999.90;;;10.80;99.90;;;;;;4951371;28;20473;-68
2021/12/15 13:11:35;;;;;;;1999.90;999.90;;;10.80;99.90;;;;;;4951663;28;20201;-68
2021/12/15 13:14:12;;;;;;;1999.90;999.90;;;10.80;99.90;;;;;;4951855;28;20434;-68
2021/12/15 13:16:52;;;;;;;1999.90;999.90;;;10.80;99.90;;;;;;4959370;28;20475;-68
2021/12/15 13:19:33;;;;;;;1999.90;999.90;;;10.80;99.90;;;;;;4964659;28;20399;-68
2021/12/15 13:31:15;;;;;;;1999.90;999.90;;;10.80;99.90;;;;;;4951079;29;20472;-68
2021/12/15 13:33:43;;;;;;;1999.90;999.90;;;10.70;99.90;;;;;;4951355;28;20448;-68
2021/12/15 13:36:09;;;;;;;1999.90;999.90;;;10.60;99.90;;;;;;4951713;29;20825;-68
2021/12/15 13:38:55;;;;;;;1999.90;999.90;;;10.70;99.90;;;;;;4951504;29;20414;-68
2021/12/15 13:44:15;;;;;;;1999.90;999.90;;;10.60;99.90;;;;;;4950957;29;20961;-68
2021/12/15 13:46:57;;;;;;;1999.90;999.90;;;10.60;99.90;;;;;;4951349;29;20417;-68
2021/12/15 13:49:52;;;;;;;1999.90;999.90;;;10.60;99.90;;;;;;4951540;28;20405;-68
2021/12/15 13:52:30;;;;;;;1999.90;999.90;;;10.60;99.90;;;;;;4950517;29;20439;-68